Résultats de la compétition "6 jours de l'Aveyron - Etape 2" du 04-08-2008 organisée par le comité départemental du 12 - Aveyron
     
  Télécharger le fichier CSV.  
     
     

 Circuit "Q"

Licence Nom Prénom Temps CN
précédent
Score sur
la course
Différence
1380DIEUDONNEMadeleine0:59:5742153457-758
5033THIEBAULTMonique1:01:1942283379-849
14245RICHARDNicole1:02:4624633301+838
6886FRANTZFrancoise1:04:4228453203+358
2680KIEFFERMireille1:08:1627203035+315
6443GEOFFROYNicole1:11:2223862904+518
395BLASCONicole1:12:0633452874-471
5497COCAULTYvonne1:12:1130892871-218
8954BASTIEN-FATHNicole1:14:4619732772+799
1106NATALIAnnie1:16:0327572725-32
2557VOGTChristiane1:16:0833872722-665
145COUPATCatherine1:19:1427732615-158
3619LAGOIDETColette1:22:4325672505-62
3185PASCAUDClaire1:22:4420522505+453
12059GROSJEANA-Marie1:24:3518902450+560
3302JEANPIERREM-Therese1:28:5630142330-684
1098MULLERM-Anne1:37:5824052115-290
701ABISSEGisele1:38:3429592102-857
16634BAUDOINAnnie1:53:4022441823-421
2182PROSTGisele1:54:5525371803-734
15894LUDEWIG-JAMESCarol1:55:0917371800+63
8121LEBIAN DEROMEAnnie2:00:0921141725-389
9AULAGNONMireille2:16:05N/A1523N/A
1444BEGUINOTM-Louise3:35:111390963-427
17LEVEQUEPauletteN/A13910-1391
2546DESAINTJANAliceN/A20070-2007

  Indice de confiance du circuit (moyenne des différences entre CN et score sur la course des 3 à 10 premiers) : 322






 Retour